createdAt,value
2022-12-07T00:02:21.690Z,6.82
2022-12-07T00:05:23.352Z,6.93
2022-12-07T00:08:24.943Z,7.38
2022-12-07T00:11:26.538Z,7.63
2022-12-07T00:14:28.129Z,7.97
2022-12-07T00:17:29.757Z,7.47
2022-12-07T00:20:32.024Z,6.82
2022-12-07T00:23:33.880Z,7.28
2022-12-07T00:26:36.903Z,6.80
2022-12-07T00:29:38.473Z,6.35
2022-12-07T00:32:40.060Z,7.05
2022-12-07T00:35:41.669Z,7.33
2022-12-07T00:38:43.357Z,7.18
2022-12-07T00:41:48.759Z,7.68
2022-12-07T00:44:50.344Z,8.27
2022-12-07T00:47:51.937Z,7.68
2022-12-07T00:50:53.520Z,8.07
2022-12-07T00:53:55.199Z,7.65
2022-12-07T00:57:00.147Z,6.80
2022-12-07T01:00:01.992Z,8.23
2022-12-07T01:03:04.677Z,7.05
2022-12-07T01:06:06.358Z,7.40
2022-12-07T01:09:08.000Z,6.60
2022-12-07T01:12:12.440Z,7.97
2022-12-07T01:15:14.066Z,7.47
2022-12-07T01:18:15.672Z,7.75
2022-12-07T01:21:22.515Z,8.30
2022-12-07T01:24:24.107Z,8.00
2022-12-07T01:27:25.685Z,7.93
2022-12-07T01:30:27.315Z,7.38
2022-12-07T01:33:29.824Z,7.60
2022-12-07T01:36:32.942Z,7.65
2022-12-07T01:39:34.522Z,8.10
2022-12-07T01:42:39.629Z,7.85
2022-12-07T01:45:41.696Z,8.13
2022-12-07T01:48:43.334Z,8.33
2022-12-07T01:51:44.984Z,7.93
2022-12-07T01:54:47.035Z,7.70
2022-12-07T01:57:49.995Z,8.07
2022-12-07T02:00:51.604Z,8.15
2022-12-07T02:03:53.209Z,8.30
2022-12-07T02:06:54.813Z,8.40
2022-12-07T02:09:56.421Z,7.88
2022-12-07T02:13:18.231Z,8.20
2022-12-07T02:16:41.040Z,7.25
2022-12-07T02:20:06.902Z,8.40
2022-12-07T02:23:26.979Z,7.38
2022-12-07T02:26:56.265Z,8.48
2022-12-07T02:30:24.051Z,8.20
2022-12-07T02:33:42.091Z,8.10
2022-12-07T02:36:45.610Z,8.75
2022-12-07T02:39:54.909Z,8.77
2022-12-07T02:43:24.193Z,9.20
2022-12-07T02:46:34.785Z,9.02
2022-12-07T02:49:37.282Z,8.55
2022-12-07T02:52:38.876Z,8.53
2022-12-07T02:55:41.359Z,9.77
2022-12-07T02:59:08.871Z,10.52
2022-12-07T03:02:18.003Z,10.88
2022-12-07T03:05:58.079Z,10.35
2022-12-07T03:09:14.855Z,9.60
2022-12-07T03:12:26.783Z,9.77
2022-12-07T03:15:33.501Z,9.70
2022-12-07T03:18:38.739Z,8.90
2022-12-07T03:21:45.690Z,9.55
2022-12-07T03:24:58.447Z,8.53
2022-12-07T03:28:06.933Z,10.57
2022-12-07T03:31:19.003Z,10.63
2022-12-07T03:34:23.207Z,10.50
2022-12-07T03:37:30.519Z,11.10
2022-12-07T03:40:38.759Z,11.65
2022-12-07T03:43:44.406Z,9.90
2022-12-07T03:47:04.364Z,10.47
2022-12-07T03:50:06.227Z,10.95
2022-12-07T03:53:25.945Z,10.63
2022-12-07T03:56:27.632Z,11.65
2022-12-07T03:59:29.214Z,12.00
2022-12-07T04:02:30.826Z,10.27
2022-12-07T04:05:32.435Z,11.40
2022-12-07T04:08:34.071Z,10.97
2022-12-07T04:11:35.659Z,10.57
2022-12-07T04:14:40.466Z,11.02
2022-12-07T04:17:42.130Z,10.02
2022-12-07T04:20:43.803Z,10.43
2022-12-07T04:23:45.380Z,9.57
2022-12-07T04:26:47.115Z,10.65
2022-12-07T04:29:51.835Z,9.70
2022-12-07T04:32:53.420Z,9.82
2022-12-07T04:35:55.088Z,9.73
2022-12-07T04:38:56.804Z,9.85
2022-12-07T04:41:58.499Z,8.80
2022-12-07T04:45:04.089Z,8.73
2022-12-07T04:48:05.858Z,9.77
2022-12-07T04:51:07.524Z,8.63
2022-12-07T04:54:09.216Z,8.90
2022-12-07T04:57:10.866Z,9.70
2022-12-07T05:00:15.406Z,10.38
2022-12-07T05:03:17.025Z,9.18
2022-12-07T05:06:18.692Z,9.60
2022-12-07T05:09:20.379Z,9.98
2022-12-07T05:12:21.951Z,8.20
2022-12-07T05:15:23.548Z,9.48
2022-12-07T05:18:28.667Z,10.10
2022-12-07T05:21:30.493Z,9.25
2022-12-07T05:24:32.087Z,10.00
2022-12-07T05:27:33.714Z,8.98
2022-12-07T05:30:42.658Z,9.68
2022-12-07T05:33:44.216Z,9.77
2022-12-07T05:36:45.804Z,9.07
2022-12-07T05:39:47.394Z,9.82
2022-12-07T05:42:48.963Z,10.10
2022-12-07T05:45:54.974Z,9.90
2022-12-07T05:48:56.550Z,11.32
2022-12-07T05:51:58.168Z,11.85
2022-12-07T05:54:59.747Z,12.18
2022-12-07T05:58:19.873Z,10.75
2022-12-07T06:01:21.433Z,11.30
2022-12-07T06:04:23.218Z,10.57
2022-12-07T06:07:24.851Z,10.23
2022-12-07T06:10:26.432Z,11.45
2022-12-07T06:13:28.108Z,11.10
2022-12-07T06:16:29.921Z,10.32
2022-12-07T06:19:31.649Z,10.98
2022-12-07T06:22:33.215Z,11.32
2022-12-07T06:25:35.284Z,10.97
2022-12-07T06:28:36.887Z,11.73
2022-12-07T06:31:38.735Z,11.95
2022-12-07T06:34:40.508Z,11.82
2022-12-07T06:37:42.076Z,13.43
2022-12-07T06:40:43.642Z,14.27
2022-12-07T06:43:45.232Z,14.45
2022-12-07T06:46:47.174Z,15.18
2022-12-07T06:49:48.750Z,16.52
2022-12-07T06:52:50.327Z,17.67
2022-12-07T06:55:51.956Z,14.98
2022-12-07T06:58:53.513Z,19.27
2022-12-07T07:01:55.236Z,21.75
2022-12-07T07:04:56.901Z,22.55
2022-12-07T07:08:21.334Z,22.47
2022-12-07T07:11:20.151Z,19.00
2022-12-07T07:14:22.341Z,17.05
2022-12-07T07:17:23.928Z,13.73
2022-12-07T07:20:25.563Z,12.67
2022-12-07T07:23:27.254Z,13.45
2022-12-07T07:26:28.808Z,12.13
2022-12-07T07:29:30.485Z,12.53
2022-12-07T07:32:32.140Z,12.82
2022-12-07T07:35:34.489Z,12.63
2022-12-07T07:38:36.176Z,11.30
2022-12-07T07:41:37.749Z,11.13
2022-12-07T07:44:42.426Z,11.30
2022-12-07T07:47:44.741Z,12.30
2022-12-07T07:50:46.552Z,11.23
2022-12-07T07:53:48.675Z,10.65
2022-12-07T07:56:50.263Z,12.98
2022-12-07T07:59:51.884Z,12.20
2022-12-07T08:02:53.477Z,16.90
2022-12-07T08:05:55.205Z,14.52
2022-12-07T08:08:58.939Z,14.50
2022-12-07T08:12:00.624Z,12.25
2022-12-07T08:15:02.357Z,13.07
2022-12-07T08:18:04.075Z,11.90
2022-12-07T08:21:06.043Z,11.55
2022-12-07T08:24:07.749Z,12.15
2022-12-07T08:27:09.415Z,11.70
2022-12-07T08:30:11.212Z,12.73
2022-12-07T08:33:12.791Z,12.32
2022-12-07T08:36:14.576Z,13.18
2022-12-07T08:39:31.321Z,12.10
2022-12-07T08:42:38.896Z,13.10
2022-12-07T08:45:41.597Z,18.38
2022-12-07T08:48:54.090Z,16.23
2022-12-07T08:51:56.307Z,16.17
2022-12-07T08:54:57.986Z,14.43
2022-12-07T08:57:59.801Z,12.13
2022-12-07T09:01:02.064Z,12.15
2022-12-07T09:04:03.919Z,11.97
2022-12-07T09:07:05.656Z,12.77
2022-12-07T09:10:07.793Z,12.05
2022-12-07T09:13:11.721Z,11.90
2022-12-07T09:16:13.420Z,13.03
2022-12-07T09:19:15.151Z,13.85
2022-12-07T09:22:16.749Z,14.93
2022-12-07T09:25:18.396Z,13.50
2022-12-07T09:28:19.990Z,14.60
2022-12-07T09:31:24.047Z,12.30
2022-12-07T09:34:27.765Z,12.32
2022-12-07T09:37:29.419Z,11.60
2022-12-07T09:40:31.032Z,11.65
2022-12-07T09:43:32.570Z,12.10
2022-12-07T09:46:39.146Z,12.02
2022-12-07T09:49:40.853Z,11.93
2022-12-07T09:52:43.140Z,10.40
2022-12-07T09:55:47.628Z,10.93
2022-12-07T09:58:49.401Z,10.18
2022-12-07T10:01:51.403Z,9.80
2022-12-07T10:04:53.116Z,9.70
2022-12-07T10:07:54.915Z,9.47
2022-12-07T10:10:57.465Z,9.50
2022-12-07T10:14:12.072Z,9.65
2022-12-07T10:17:33.327Z,9.57
2022-12-07T10:20:35.240Z,9.10
2022-12-07T10:23:41.524Z,9.77
2022-12-07T10:26:51.715Z,9.98
2022-12-07T10:29:54.045Z,8.60
2022-12-07T10:32:55.650Z,9.68
2022-12-07T10:35:57.466Z,9.47
2022-12-07T10:39:12.953Z,9.38
2022-12-07T10:42:27.398Z,8.85
2022-12-07T10:45:29.115Z,7.88
2022-12-07T10:49:04.181Z,8.87
2022-12-07T10:52:27.718Z,10.07
2022-12-07T10:55:57.419Z,9.07
2022-12-07T10:59:14.369Z,8.52
2022-12-07T11:02:21.986Z,7.60
2022-12-07T11:05:30.054Z,8.30
2022-12-07T11:08:40.492Z,7.07
2022-12-07T11:11:47.428Z,7.78
2022-12-07T11:15:18.498Z,7.10
2022-12-07T11:18:25.446Z,7.67
2022-12-07T11:21:42.384Z,7.40
2022-12-07T11:24:51.728Z,7.38
2022-12-07T11:28:32.013Z,7.38
2022-12-07T11:31:48.827Z,7.45
2022-12-07T11:35:16.270Z,8.53
2022-12-07T11:38:22.089Z,6.93
2022-12-07T11:41:33.394Z,8.05
2022-12-07T11:44:40.596Z,7.97
2022-12-07T11:48:03.831Z,7.45
2022-12-07T11:51:06.185Z,8.07
2022-12-07T11:54:16.066Z,7.80
2022-12-07T11:57:26.071Z,7.75
2022-12-07T12:00:27.718Z,8.23
2022-12-07T12:03:35.421Z,7.27
2022-12-07T12:06:37.859Z,7.87
2022-12-07T12:10:14.782Z,8.32
2022-12-07T12:17:29.817Z,7.70
2022-12-07T12:20:46.368Z,7.70
2022-12-07T12:24:03.576Z,8.35
2022-12-07T12:27:07.911Z,7.45
2022-12-07T12:30:31.402Z,6.65
2022-12-07T12:33:33.144Z,7.27
2022-12-07T12:36:45.083Z,7.20
2022-12-07T12:40:15.772Z,8.05
2022-12-07T12:43:47.154Z,7.15
2022-12-07T12:46:50.277Z,6.88
2022-12-07T12:50:18.879Z,8.10
2022-12-07T12:53:24.863Z,8.05
2022-12-07T12:56:36.948Z,7.72
2022-12-07T12:59:53.908Z,8.10
2022-12-07T13:02:56.497Z,8.47
2022-12-07T13:06:21.219Z,9.15
2022-12-07T13:09:28.184Z,8.27
2022-12-07T13:12:29.833Z,8.52
2022-12-07T13:15:38.477Z,8.20
2022-12-07T13:18:40.109Z,8.10
2022-12-07T13:21:42.294Z,7.55
2022-12-07T13:24:43.946Z,7.63
2022-12-07T13:27:58.238Z,7.20
2022-12-07T13:31:24.701Z,7.65
2022-12-07T13:34:30.648Z,7.63
2022-12-07T13:37:38.401Z,7.38
2022-12-07T13:40:40.592Z,7.40
2022-12-07T13:43:57.545Z,7.50
2022-12-07T13:47:04.990Z,7.40
2022-12-07T13:50:30.443Z,7.32
2022-12-07T13:53:32.112Z,7.40
2022-12-07T13:56:35.003Z,8.20
2022-12-07T13:59:38.586Z,7.93
2022-12-07T14:02:56.202Z,6.97
2022-12-07T14:06:39.681Z,7.35
2022-12-07T14:09:41.393Z,7.47
2022-12-07T14:12:43.246Z,8.05
2022-12-07T14:15:47.761Z,7.28
2022-12-07T14:18:49.388Z,7.22
2022-12-07T14:21:51.022Z,7.57
2022-12-07T14:25:00.191Z,7.45
2022-12-07T14:28:02.276Z,8.23
2022-12-07T14:31:04.214Z,7.40
2022-12-07T14:34:05.907Z,7.40
2022-12-07T14:37:10.373Z,8.50
2022-12-07T14:40:20.749Z,7.60
2022-12-07T14:43:22.331Z,7.80
2022-12-07T14:46:23.923Z,8.17
2022-12-07T14:55:55.978Z,8.02
2022-12-07T14:58:57.607Z,8.43
2022-12-07T15:01:59.368Z,7.35
2022-12-07T15:05:01.359Z,7.53
2022-12-07T15:08:03.345Z,8.02
2022-12-07T15:11:05.254Z,7.63
2022-12-07T15:14:09.730Z,8.13
2022-12-07T15:17:22.023Z,8.38
2022-12-07T15:20:29.793Z,8.13
2022-12-07T15:23:32.255Z,7.73
2022-12-07T15:26:33.860Z,8.77
2022-12-07T15:29:35.422Z,8.38
2022-12-07T15:32:37.143Z,8.93
2022-12-07T15:35:42.452Z,9.07
2022-12-07T15:39:12.660Z,8.77
2022-12-07T15:42:05.699Z,9.02
2022-12-07T15:45:08.432Z,9.52
2022-12-07T15:51:31.688Z,11.05
2022-12-07T15:54:33.862Z,10.15
2022-12-07T15:57:40.623Z,10.85
2022-12-07T16:00:42.340Z,10.47
2022-12-07T16:03:44.210Z,10.85
2022-12-07T16:06:45.754Z,12.50
2022-12-07T16:09:56.347Z,10.55
2022-12-07T16:12:57.926Z,10.90
2022-12-07T16:15:59.576Z,9.57
2022-12-07T16:19:01.164Z,8.35
2022-12-07T16:22:03.070Z,7.47
2022-12-07T16:25:05.272Z,6.65
2022-12-07T16:28:11.440Z,5.87
2022-12-07T16:31:15.034Z,6.25
2022-12-07T16:34:16.849Z,6.50
2022-12-07T16:37:18.540Z,5.80
2022-12-07T16:40:24.485Z,5.97
2022-12-07T16:43:26.079Z,5.70
2022-12-07T16:46:27.749Z,5.30
2022-12-07T16:49:29.472Z,5.65
2022-12-07T16:52:31.132Z,6.93
2022-12-07T16:55:34.334Z,5.47
2022-12-07T16:58:39.557Z,6.25
2022-12-07T17:01:41.120Z,6.05
2022-12-07T17:04:43.442Z,5.35
2022-12-07T17:07:45.150Z,6.10
2022-12-07T17:10:49.895Z,5.65
2022-12-07T17:14:10.097Z,6.18
2022-12-07T17:17:11.681Z,6.00
2022-12-07T17:20:13.541Z,5.00
2022-12-07T17:23:15.302Z,5.57
2022-12-07T17:26:22.266Z,6.25
2022-12-07T17:29:28.370Z,5.10
2022-12-07T17:32:29.981Z,4.95
2022-12-07T17:35:31.585Z,5.53
2022-12-07T17:38:33.171Z,5.97
2022-12-07T17:41:56.726Z,5.77
2022-12-07T17:44:58.762Z,7.07
2022-12-07T17:48:00.354Z,7.20
2022-12-07T17:51:20.620Z,6.35
2022-12-07T17:54:22.396Z,7.20
2022-12-07T17:57:23.960Z,6.88
2022-12-07T18:00:30.732Z,7.38
2022-12-07T18:03:32.325Z,7.50
2022-12-07T18:06:34.109Z,7.40
2022-12-07T18:09:35.733Z,7.65
2022-12-07T18:12:41.080Z,8.10
2022-12-07T18:15:42.675Z,8.00
2022-12-07T18:18:50.636Z,8.53
2022-12-07T18:21:54.019Z,7.90
2022-12-07T18:24:55.962Z,8.35
2022-12-07T18:27:57.559Z,8.75
2022-12-07T18:31:14.789Z,8.73
2022-12-07T18:34:19.294Z,8.15
2022-12-07T18:37:20.963Z,9.32
2022-12-07T18:40:22.523Z,8.32
2022-12-07T18:43:25.666Z,8.40
2022-12-07T18:46:27.368Z,8.35
2022-12-07T18:49:29.012Z,8.23
2022-12-07T18:52:30.593Z,8.77
2022-12-07T18:55:32.424Z,8.38
2022-12-07T18:58:34.195Z,7.72
2022-12-07T19:01:36.552Z,8.43
2022-12-07T19:04:38.240Z,8.10
2022-12-07T19:07:39.838Z,8.77
2022-12-07T19:10:41.466Z,9.50
2022-12-07T19:13:46.355Z,9.13
2022-12-07T19:16:49.929Z,8.67
2022-12-07T19:19:51.612Z,8.07
2022-12-07T19:22:53.219Z,8.50
2022-12-07T19:25:55.195Z,8.40
2022-12-07T19:28:56.767Z,8.93
2022-12-07T19:31:59.566Z,8.30
2022-12-07T19:35:01.476Z,8.18
2022-12-07T19:38:03.472Z,8.93
2022-12-07T19:41:32.368Z,8.43
2022-12-07T19:44:34.308Z,8.93
2022-12-07T19:47:35.895Z,8.57
2022-12-07T19:50:37.496Z,8.43
2022-12-07T19:53:39.123Z,8.38
2022-12-07T19:56:40.838Z,8.65
2022-12-07T19:59:42.475Z,8.43
2022-12-07T20:02:44.118Z,9.47
2022-12-07T20:05:45.750Z,8.98
2022-12-07T20:08:47.754Z,8.90
2022-12-07T20:12:08.067Z,8.10
2022-12-07T20:15:13.201Z,9.55
2022-12-07T20:18:14.739Z,9.25
2022-12-07T20:21:20.641Z,8.60
2022-12-07T20:24:24.000Z,8.83
2022-12-07T20:27:25.640Z,8.80
2022-12-07T20:30:27.220Z,9.18
2022-12-07T20:33:30.085Z,9.53
2022-12-07T20:36:33.341Z,9.00
2022-12-07T20:39:35.198Z,8.75
2022-12-07T20:42:36.927Z,8.98
2022-12-07T20:45:51.346Z,8.80
2022-12-07T20:48:53.152Z,9.18
2022-12-07T20:51:54.751Z,9.52
2022-12-07T20:54:56.660Z,8.83
2022-12-07T20:57:58.498Z,8.73
2022-12-07T21:01:01.458Z,8.48
2022-12-07T21:04:03.403Z,8.00
2022-12-07T21:07:04.968Z,8.07
2022-12-07T21:10:07.646Z,8.43
2022-12-07T21:13:09.435Z,8.48
2022-12-07T21:16:18.558Z,8.82
2022-12-07T21:19:20.212Z,8.63
2022-12-07T21:22:21.804Z,8.70
2022-12-07T21:25:23.466Z,8.57
2022-12-07T21:28:25.137Z,10.25
2022-12-07T21:31:26.885Z,10.20
2022-12-07T21:34:28.752Z,11.23
2022-12-07T21:37:33.151Z,11.25
2022-12-07T21:40:34.792Z,11.73
2022-12-07T21:43:36.362Z,11.30
2022-12-07T21:46:41.281Z,11.93
2022-12-07T21:49:42.911Z,11.93
2022-12-07T21:52:44.519Z,12.20
2022-12-07T21:55:46.105Z,12.48
2022-12-07T21:58:47.821Z,12.47
2022-12-07T22:01:49.764Z,12.55
2022-12-07T22:04:51.430Z,13.40
2022-12-07T22:07:53.016Z,13.53
2022-12-07T22:10:54.630Z,12.55
2022-12-07T22:14:14.527Z,13.50
2022-12-07T22:17:19.243Z,14.18
2022-12-07T22:20:21.508Z,14.60
2022-12-07T22:23:24.263Z,14.73
2022-12-07T22:26:25.952Z,15.57
2022-12-07T22:29:27.675Z,13.80
2022-12-07T22:35:57.759Z,13.43
2022-12-07T22:39:00.576Z,13.02
2022-12-07T22:42:02.390Z,13.07
2022-12-07T22:45:04.510Z,13.23
2022-12-07T22:48:10.808Z,13.55
2022-12-07T22:51:41.505Z,12.70
2022-12-07T22:54:43.084Z,12.90
2022-12-07T22:57:44.628Z,12.23
2022-12-07T23:00:46.404Z,11.38
2022-12-07T23:03:48.145Z,12.47
2022-12-07T23:06:49.785Z,11.93
2022-12-07T23:09:51.346Z,13.10
2022-12-07T23:13:11.248Z,12.75
2022-12-07T23:16:14.513Z,11.80
2022-12-07T23:19:19.476Z,11.65
2022-12-07T23:22:21.031Z,11.10
2022-12-07T23:25:23.039Z,11.13
2022-12-07T23:28:24.604Z,11.07
2022-12-07T23:31:26.416Z,11.23
2022-12-07T23:34:28.041Z,11.48
2022-12-07T23:37:29.669Z,10.17
2022-12-07T23:40:31.247Z,10.98
2022-12-07T23:43:32.819Z,10.30
2022-12-07T23:46:34.721Z,10.43
2022-12-07T23:49:36.362Z,10.73
2022-12-07T23:52:37.944Z,9.48
2022-12-07T23:55:45.260Z,10.27
2022-12-07T23:58:47.368Z,8.57
